Aérodrome :
LOGIN :

S'inscrire | Disclaimer

   EN    FR    IT 

 










Légende :    VFR   VFR Marginal   IFR   IFR Intensif   IFR Très Intensif
Visi : 
Plafond : 
>= 8 km
>= 3000ft
5 à 8 km
1000 à 3000 ft
1500m à 5 km
500 à 1000 ft
800 à 1500m
200 à 500 ft
< 800m
< 200 ft
Symboles :   Orages  Brouillard  Fortes neiges  Fortes précipitations  Vent > 20 kt
SIGMETs :   Divers  Orages  Givrage  Turbulence  Onde Orograph.  Cendres Volcan.







- Altitude de l'aérodrome : 238 ft
- Code IATA : FAB
- Voir les cartes d'approche


EGLF - Farnborough

DERNIER METAR :
  • 231350Z 34014KT 9999 SCT035 12/06 Q1021

METARs EXPIRÉS :
  • 231320Z 33012KT 290V360 9999 FEW022 12/07 Q1020
  • 231250Z 33010KT 9999 FEW017 11/08 Q1019
  • 231220Z 32010KT 290V350 9999 FEW017 10/08 Q1019
  • 231150Z 34007KT 310V010 9999 -RA FEW030 08/07 Q1018
  • 231120Z 34009KT 9999 -RA FEW015 09/06 Q1019

TAF TAF EGLF
Valide du 23 à 12h jusqu'au 23 à 19h UTC


231054Z 2312/2319 34012KT 9999 SCT030
TEMPO 2312/2313 7000 RA BKN014
PROB30
TEMPO 2312/2316 35015G25KT
ATIS : +44 09063 800 400 (*282)
Pas de NOTAMs connus pour ce terrain.
1 SIGMET publié pour la FIR London (EGTT) :
 
Turbulence forte
EGTT SIGMET 03 VALID 231330/231630 EGRR
EGTT LONDON FIR SEV TURB FCST WI N5100 E00128 - N5040 E00128 - N5000 W00014 - N5031 W00005 - N5102 E00122 - N5130 E00200 - N5107 E00201 - N5100 E00128 SFC/FL060 MOV E 30KT WKN=



MET'MAP, la Météo Aéronautique d'un coup d'oeil ! - Copyright ORBIFLY Décembre 2007 - Disclaimer

ORBIFLY MET'MAP TEAM :

Programmation & Développement : Alexandra Zaïnal
Conception & Développement : Baudouin d'Aumeries
Co-Programmation & Développement : Marc-Olivier Méhu
Soutien technique & logistique : Manuel Goepfert

Contact : metmap@orbifly.com




SOURCES & CREDITS :

   NOAA